Time;durP1;ratioP1;P1;durP2;ratioP2;P2;SDS_P1;SDS_P2;PMS_P1;PMS_P2;Temp;Humidity;BMP_temperature;BMP_pressure;BME280_temperature;BME280_humidity;BME280_pressure;Samples;Min_cycle;Max_cycle;Signal;HPM_P1;HPM_P2
2022/04/15 00:00:24;;;;;;;29.10;21.50;;;;;;;12.25;52.48;99579.95;447689;1268;141726;-66
2022/04/15 00:10:30;;;;;;;24.10;17.80;;;;;;;12.24;52.91;99583.16;447192;1268;141962;-65
2022/04/15 00:20:36;;;;;;;24.70;18.60;;;;;;;12.22;53.42;99580.13;448003;1267;144829;-66
2022/04/15 00:30:42;;;;;;;23.60;19.00;;;;;;;12.16;54.04;99586.04;447069;1269;142631;-65
2022/04/15 00:40:48;;;;;;;25.80;18.90;;;;;;;12.07;54.58;99585.40;448009;1267;141666;-65
2022/04/15 00:50:54;;;;;;;25.40;20.00;;;;;;;12.04;54.95;99574.40;442823;1267;141886;-67
2022/04/15 01:01:01;;;;;;;26.00;19.40;;;;;;;11.98;55.21;99573.58;441197;1267;141118;-70
2022/04/15 01:11:08;;;;;;;26.90;20.10;;;;;;;11.89;55.45;99595.76;441149;1266;145736;-69
2022/04/15 01:21:15;;;;;;;27.00;20.20;;;;;;;11.78;55.68;99588.95;447859;1268;141313;-69
2022/04/15 01:31:22;;;;;;;29.40;20.00;;;;;;;11.66;55.78;99584.88;447291;1267;141506;-68
2022/04/15 01:41:28;;;;;;;23.90;19.70;;;;;;;11.55;55.85;99591.08;446572;1267;141512;-68
2022/04/15 01:51:37;;;;;;;26.00;19.70;;;;;;;11.48;56.13;99595.21;446184;1267;142055;-68
2022/04/15 02:01:43;;;;;;;27.40;20.30;;;;;;;11.43;56.35;99594.12;448088;1268;141537;-68
2022/04/15 02:11:49;;;;;;;24.50;20.60;;;;;;;11.40;56.54;99581.87;448099;1267;141626;-64
2022/04/15 02:21:55;;;;;;;23.90;19.00;;;;;;;11.37;56.70;99574.42;447273;1267;142112;-64
2022/04/15 02:32:00;;;;;;;23.20;19.40;;;;;;;11.35;57.06;99576.42;448043;1267;140723;-65
2022/04/15 02:42:07;;;;;;;23.40;19.30;;;;;;;11.37;57.38;99579.84;448103;1267;141456;-65
2022/04/15 02:52:12;;;;;;;27.50;21.30;;;;;;;11.36;57.35;99578.98;447287;1265;141850;-69
2022/04/15 03:02:18;;;;;;;29.60;23.70;;;;;;;11.32;57.43;99587.52;447513;1268;142054;-69
2022/04/15 03:12:24;;;;;;;24.60;21.80;;;;;;;11.28;57.76;99596.17;448111;1268;141028;-69
2022/04/15 03:22:30;;;;;;;30.40;20.90;;;;;;;11.23;58.06;99602.98;447282;1267;141595;-69
2022/04/15 03:32:44;;;;;;;26.00;21.20;;;;;;;11.16;58.18;99617.83;448048;1267;142425;-69
2022/04/15 03:42:51;;;;;;;23.20;20.20;;;;;;;11.15;58.59;99618.77;438707;1267;142952;-68
2022/04/15 03:52:57;;;;;;;26.50;20.50;;;;;;;11.05;59.27;99618.20;448076;1266;142603;-68
2022/04/15 04:03:03;;;;;;;23.50;19.90;;;;;;;10.94;60.05;99620.14;447976;1267;141632;-69
2022/04/15 04:13:10;;;;;;;27.80;20.50;;;;;;;10.90;61.09;99629.99;447032;1267;142950;-69
2022/04/15 04:23:16;;;;;;;24.60;20.00;;;;;;;10.85;62.37;99633.66;442125;1269;141687;-62
2022/04/15 04:33:23;;;;;;;21.00;17.30;;;;;;;10.67;64.27;99645.45;431282;1268;141276;-64
2022/04/15 04:43:30;;;;;;;21.20;15.70;;;;;;;10.49;65.96;99645.90;447335;1267;141321;-65
2022/04/15 04:53:36;;;;;;;21.20;15.70;;;;;;;10.46;67.10;99654.86;448099;1268;141840;-65
2022/04/15 05:03:42;;;;;;;18.50;14.80;;;;;;;10.52;68.23;99654.67;447141;1267;142316;-66
2022/04/15 05:13:50;;;;;;;13.60;12.20;;;;;;;10.56;69.16;99651.58;447961;1267;143770;-66
2022/04/15 05:23:54;;;;;;;;;;;;;;;10.73;69.70;99635.45;447949;1268;141908;-66
2022/04/15 05:34:00;;;;;;;14.40;12.50;;;;;;;10.90;69.91;99637.36;447401;1268;128291;-69
2022/04/15 05:44:08;;;;;;;16.30;13.40;;;;;;;10.92;70.68;99654.23;447800;1268;142396;-68
2022/04/15 05:54:14;;;;;;;13.40;12.00;;;;;;;11.04;70.84;99659.09;447884;1268;141719;-68
2022/04/15 06:04:20;;;;;;;14.50;12.90;;;;;;;10.98;71.27;99666.66;447137;1268;142508;-68
2022/04/15 06:14:26;;;;;;;13.40;12.10;;;;;;;10.96;71.76;99668.48;447975;1268;144502;-66
2022/04/15 06:24:32;;;;;;;14.30;12.30;;;;;;;11.04;72.02;99673.07;448024;1268;142824;-66
2022/04/15 06:34:38;;;;;;;19.50;16.60;;;;;;;11.01;72.19;99672.40;447284;1265;142546;-66
2022/04/15 06:44:44;;;;;;;19.90;16.40;;;;;;;10.92;72.74;99675.80;443148;1270;141771;-68
2022/04/15 06:54:49;;;;;;;16.90;14.60;;;;;;;10.95;73.27;99673.85;447313;1267;142200;-65
2022/04/15 07:04:55;;;;;;;16.20;14.50;;;;;;;11.46;73.34;99672.12;442051;1268;141127;-65
2022/04/15 07:15:02;;;;;;;16.80;15.00;;;;;;;11.71;72.80;99669.60;433002;1268;142233;-64
2022/04/15 07:25:09;;;;;;;19.10;17.10;;;;;;;12.20;72.52;99677.84;447266;1268;141991;-65
2022/04/15 07:35:15;;;;;;;16.50;13.00;;;;;;;12.54;71.40;99684.13;446330;1267;145136;-65
2022/04/15 07:45:21;;;;;;;14.30;12.90;;;;;;;12.16;71.18;99686.70;447390;1267;143068;-65
2022/04/15 07:55:27;;;;;;;12.20;10.80;;;;;;;12.26;71.49;99686.96;447249;1267;142184;-65
2022/04/15 08:05:33;;;;;;;12.20;11.00;;;;;;;12.60;70.56;99694.79;448005;1267;142457;-65
2022/04/15 08:15:39;;;;;;;13.50;12.10;;;;;;;12.25;70.45;99704.20;447396;1266;142462;-65
2022/04/15 08:25:45;;;;;;;13.90;11.90;;;;;;;12.28;70.67;99711.25;448006;1267;142516;-65
2022/04/15 08:35:51;;;;;;;12.90;11.60;;;;;;;12.95;69.77;99707.90;447948;1266;143736;-65
2022/04/15 08:46:16;;;;;;;10.00;9.00;;;;;;;13.04;68.72;99711.86;447152;1266;141497;-66
2022/04/15 08:56:24;;;;;;;9.40;8.60;;;;;;;13.06;68.04;99721.23;447932;1267;141190;-65
2022/04/15 09:06:32;;;;;;;9.30;8.20;;;;;;;12.96;67.60;99728.92;447979;1266;141969;-66
2022/04/15 09:16:41;;;;;;;7.80;7.10;;;;;;;14.06;66.88;99724.38;447174;1267;142643;-65
2022/04/15 09:26:49;;;;;;;7.10;6.20;;;;;;;15.58;63.55;99712.84;447930;1266;145106;-66
2022/04/15 09:36:57;;;;;;;5.50;5.00;;;;;;;15.17;61.59;99712.98;447137;1267;142173;-65
2022/04/15 09:47:07;;;;;;;5.40;3.90;;;;;;;15.70;60.47;99717.45;448029;1267;142458;-63
2022/04/15 09:57:24;;;;;;;4.40;3.60;;;;;;;16.80;57.82;99715.92;444774;1268;141114;-64
2022/04/15 10:07:31;;;;;;;2.30;2.10;;;;;;;16.91;55.83;99713.93;447133;1266;140349;-63
2022/04/15 10:17:40;;;;;;;3.10;2.70;;;;;;;17.44;53.78;99699.02;447842;1266;140656;-64
2022/04/15 10:27:46;;;;;;;2.60;2.00;;;;;;;17.33;52.63;99686.91;447167;1267;142031;-60
2022/04/15 10:37:58;;;;;;;4.10;1.70;;;;;;;17.54;52.06;99685.46;447940;1267;198740;-60
2022/04/15 10:48:05;;;;;;;3.30;2.10;;;;;;;17.65;51.27;99682.38;447886;1267;140770;-59
2022/04/15 10:58:15;;;;;;;4.00;1.50;;;;;;;17.66;49.99;99668.31;447082;1267;142157;-60
2022/04/15 11:08:23;;;;;;;3.20;2.40;;;;;;;17.60;48.75;99661.80;447978;1267;141304;-62
2022/04/15 11:18:47;;;;;;;4.00;2.10;;;;;;;17.84;47.68;99658.16;447912;1267;141610;-62
2022/04/15 11:28:59;;;;;;;4.00;1.80;;;;;;;17.64;47.56;99659.29;447775;1269;142708;-63
2022/04/15 11:39:07;;;;;;;4.20;3.40;;;;;;;17.61;46.77;99653.55;447894;1267;143152;-65
2022/04/15 11:49:18;;;;;;;3.60;2.30;;;;;;;17.06;46.54;99654.77;446901;1269;142253;-65
2022/04/15 11:59:24;;;;;;;5.40;2.90;;;;;;;16.74;47.04;99649.11;447772;1267;199897;-64
2022/04/15 12:09:30;;;;;;;5.70;3.60;;;;;;;16.68;47.52;99640.83;448079;1266;140554;-66
2022/04/15 12:19:47;;;;;;;6.40;3.90;;;;;;;17.17;47.31;99637.49;448085;1266;141809;-66
2022/04/15 12:29:54;;;;;;;4.30;3.00;;;;;;;17.06;47.42;99649.66;446008;1266;141972;-65
2022/04/15 12:40:00;;;;;;;4.20;3.70;;;;;;;15.97;47.34;99660.50;447171;1267;141970;-65
2022/04/15 12:50:25;;;;;;;8.80;6.90;;;;;;;15.84;49.01;99660.71;448031;1265;141659;-66
2022/04/15 13:00:31;;;;;;;2.80;2.50;;;;;;;15.38;49.29;99674.23;447945;1267;140798;-65
2022/04/15 13:10:38;;;;;;;4.80;4.30;;;;;;;14.65;50.43;99672.90;447209;1267;143516;-67
2022/04/15 13:21:05;;;;;;;2.60;1.40;;;;;;;14.50;50.57;99673.67;441025;1267;143097;-68
2022/04/15 13:31:10;;;;;;;1.90;1.40;;;;;;;14.26;50.01;99667.59;447271;1267;141297;-68
2022/04/15 13:41:16;;;;;;;1.60;1.00;;;;;;;14.31;50.07;99662.67;448022;1267;141138;-68
2022/04/15 13:51:22;;;;;;;1.40;1.30;;;;;;;14.74;50.21;99665.65;448075;1267;141208;-66
2022/04/15 14:01:29;;;;;;;5.20;2.50;;;;;;;14.80;50.29;99664.11;447225;1267;141023;-67
2022/04/15 14:11:36;;;;;;;3.50;3.00;;;;;;;14.42;52.41;99670.76;447983;1267;141371;-67
2022/04/15 14:21:43;;;;;;;6.20;3.90;;;;;;;14.52;53.58;99682.69;447140;1267;141834;-66
2022/04/15 14:31:50;;;;;;;4.60;3.60;;;;;;;14.27;53.81;99683.90;447922;1267;142080;-68
2022/04/15 14:41:56;;;;;;;4.30;3.50;;;;;;;13.91;54.46;99685.09;447967;1266;142314;-67
2022/04/15 14:52:02;;;;;;;4.70;3.50;;;;;;;13.72;54.32;99704.79;447154;1267;142984;-67
2022/04/15 15:02:08;;;;;;;4.30;3.90;;;;;;;13.16;55.83;99707.66;447951;1267;141648;-68
2022/04/15 15:12:14;;;;;;;4.80;4.40;;;;;;;12.70;57.02;99721.48;447726;1267;141754;-67
2022/04/15 15:22:20;;;;;;;4.40;3.90;;;;;;;12.44;58.14;99733.43;447262;1267;140698;-68
2022/04/15 15:32:26;;;;;;;4.10;3.60;;;;;;;11.87;59.57;99736.90;445531;1269;142799;-67
2022/04/15 15:42:32;;;;;;;4.80;4.40;;;;;;;11.20;62.16;99746.87;437650;1267;141636;-61
2022/04/15 15:52:39;;;;;;;3.40;3.10;;;;;;;10.72;63.57;99749.84;446858;1269;141802;-60
2022/04/15 16:02:45;;;;;;;5.70;3.60;;;;;;;10.54;64.54;99757.63;438633;1267;142733;-62
2022/04/15 16:12:52;;;;;;;3.90;3.60;;;;;;;10.54;65.09;99765.32;435504;1267;141421;-61
2022/04/15 16:22:59;;;;;;;5.90;4.00;;;;;;;10.32;65.98;99762.59;447933;1267;142679;-59
2022/04/15 16:33:11;;;;;;;6.00;5.00;;;;;;;10.18;66.92;99768.30;446877;1269;141286;-58
2022/04/15 16:43:17;;;;;;;5.80;5.00;;;;;;;10.10;67.75;99775.23;431435;1268;142693;-59
2022/04/15 16:53:24;;;;;;;7.10;6.10;;;;;;;9.92;68.98;99786.80;441780;1267;141650;-61
2022/04/15 17:03:36;;;;;;;7.30;6.70;;;;;;;9.73;69.88;99785.92;447878;1267;140964;-66
2022/04/15 17:13:45;;;;;;;7.60;6.90;;;;;;;9.50;70.79;99795.25;448123;1267;141107;-67
2022/04/15 17:23:53;;;;;;;7.20;6.20;;;;;;;9.38;71.85;99798.02;440153;1268;141776;-64
2022/04/15 17:34:00;;;;;;;11.90;6.40;;;;;;;9.31;72.46;99815.70;436732;1268;141911;-64
2022/04/15 17:44:06;;;;;;;30.60;13.00;;;;;;;9.19;73.13;99823.31;443503;1266;141082;-66
2022/04/15 17:54:13;;;;;;;6.10;5.70;;;;;;;9.10;73.42;99832.39;444497;1268;141575;-65
2022/04/15 18:04:19;;;;;;;6.80;6.00;;;;;;;8.98;73.83;99844.36;447139;1267;141101;-66
2022/04/15 18:14:27;;;;;;;12.10;10.70;;;;;;;8.92;73.84;99853.23;444244;1268;140716;-64
2022/04/15 18:24:34;;;;;;;16.00;12.20;;;;;;;8.72;74.01;99866.88;447937;1268;142500;-59
2022/04/15 18:34:41;;;;;;;20.90;16.50;;;;;;;8.47;74.32;99882.41;447781;1268;143359;-62
2022/04/15 18:44:47;;;;;;;24.00;18.90;;;;;;;8.14;74.56;99896.23;443865;1268;152012;-69
2022/04/15 18:54:54;;;;;;;29.10;23.10;;;;;;;7.87;74.65;99909.20;447161;1267;142824;-70
2022/04/15 19:05:00;;;;;;;28.60;20.90;;;;;;;7.60;74.86;99918.99;447959;1267;141080;-70
2022/04/15 19:15:08;;;;;;;20.10;16.10;;;;;;;7.37;75.19;99925.79;448107;1268;141960;-67
2022/04/15 19:25:14;;;;;;;17.70;15.10;;;;;;;7.17;75.42;99933.11;446992;1268;141968;-63
2022/04/15 19:35:23;;;;;;;17.70;12.60;;;;;;;7.05;75.62;99946.52;447531;1267;141735;-69
2022/04/15 19:45:34;;;;;;;19.90;13.90;;;;;;;6.82;75.75;99955.67;438561;1268;141377;-69
2022/04/15 19:55:43;;;;;;;13.70;11.30;;;;;;;6.60;76.07;99954.31;447820;1268;141872;-66
2022/04/15 20:05:49;;;;;;;15.80;11.00;;;;;;;6.42;76.11;99958.86;442019;1268;140944;-65
2022/04/15 20:15:55;;;;;;;21.70;14.40;;;;;;;6.32;76.30;99959.11;444478;1268;143683;-66
2022/04/15 20:26:02;;;;;;;18.50;14.50;;;;;;;6.22;76.14;99966.98;447689;1269;193237;-64
2022/04/15 20:36:08;;;;;;;19.10;12.20;;;;;;;6.12;76.66;99975.89;441110;1268;142199;-63
2022/04/15 20:46:15;;;;;;;16.80;12.30;;;;;;;6.02;76.83;99986.70;446518;1268;141305;-66
2022/04/15 20:56:25;;;;;;;16.80;12.50;;;;;;;5.86;77.16;99993.86;447920;1267;142224;-66
2022/04/15 21:06:31;;;;;;;19.60;14.60;;;;;;;5.77;77.35;100000.30;447894;1267;141297;-66
2022/04/15 21:16:37;;;;;;;20.60;15.80;;;;;;;5.67;77.45;100002.73;446558;1269;142699;-60
2022/04/15 21:26:43;;;;;;;18.30;13.60;;;;;;;5.61;77.52;100016.52;447762;1267;142479;-60
2022/04/15 21:36:49;;;;;;;15.50;12.60;;;;;;;5.61;78.21;100018.41;447227;1267;143045;-62
2022/04/15 21:46:55;;;;;;;15.30;11.50;;;;;;;5.61;78.18;100026.09;447698;1268;142711;-62
2022/04/15 21:57:02;;;;;;;9.20;7.60;;;;;;;5.51;78.32;100031.27;431890;1268;141949;-61
2022/04/15 22:07:10;;;;;;;12.10;9.20;;;;;;;5.35;78.62;100036.70;446300;1268;141522;-66
2022/04/15 22:17:19;;;;;;;11.20;9.40;;;;;;;5.21;78.31;100046.59;443754;1266;142083;-62
2022/04/15 22:27:25;;;;;;;18.60;13.70;;;;;;;5.11;78.77;100048.14;448120;1267;141825;-61
2022/04/15 22:37:32;;;;;;;15.40;12.40;;;;;;;5.02;79.21;100059.87;446996;1267;142170;-62
2022/04/15 22:47:41;;;;;;;18.70;15.30;;;;;;;5.03;79.46;100061.07;448027;1267;141849;-60
2022/04/15 22:57:47;;;;;;;15.10;11.80;;;;;;;4.97;79.41;100074.27;446861;1269;143745;-62
2022/04/15 23:07:54;;;;;;;17.70;15.80;;;;;;;4.95;79.40;100075.89;446912;1269;142125;-62
2022/04/15 23:18:00;;;;;;;15.40;12.20;;;;;;;4.95;79.70;100077.46;444785;1269;142460;-63
2022/04/15 23:28:07;;;;;;;20.60;16.80;;;;;;;4.96;79.57;100088.01;447106;1267;141623;-62
2022/04/15 23:38:14;;;;;;;19.80;16.20;;;;;;;4.96;80.04;100091.98;448046;1267;141965;-63
2022/04/15 23:58:43;;;;;;;14.40;12.90;;;;;;;4.88;79.97;100099.02;447754;1266;369140;-65
